Time;durP1;ratioP1;P1;durP2;ratioP2;P2;SDS_P1;SDS_P2;PMS_P1;PMS_P2;Temp;Humidity;BMP_temperature;BMP_pressure;BME280_temperature;BME280_humidity;BME280_pressure;Samples;Min_cycle;Max_cycle;Signal;HPM_P1;HPM_P2
2022/05/05 00:01:51;;;;;;;22.38;8.15;;;;;;;;;;5052465;28;20513;-74
2022/05/05 00:04:19;;;;;;;14.50;7.60;;;;;;;;;;5045304;28;20784;-74
2022/05/05 00:06:47;;;;;;;20.77;9.13;;;;;;;;;;5055059;28;20074;-74
2022/05/05 00:09:14;;;;;;;18.90;8.57;;;;;;;;;;5046885;28;20079;-74
2022/05/05 00:14:27;;;;;;;15.07;8.65;;;;;;;;;;5037161;28;20072;-74
2022/05/05 00:16:56;;;;;;;20.95;9.63;;;;;;;;;;5045419;28;20053;-74
2022/05/05 00:19:23;;;;;;;19.27;9.68;;;;;;;;;;5046339;28;20135;-73
2022/05/05 00:21:51;;;;;;;18.52;9.73;;;;;;;;;;5032235;28;20088;-73
2022/05/05 00:24:18;;;;;;;21.25;10.02;;;;;;;;;;5020768;28;20136;-73
2022/05/05 00:26:45;;;;;;;18.17;9.00;;;;;;;;;;5053446;28;20083;-73
2022/05/05 00:29:13;;;;;;;17.15;8.93;;;;;;;;;;5023601;28;20127;-74
2022/05/05 00:31:40;;;;;;;20.17;9.05;;;;;;;;;;5054526;28;20149;-74
2022/05/05 00:34:08;;;;;;;16.08;9.15;;;;;;;;;;5020629;28;20045;-74
2022/05/05 00:36:35;;;;;;;18.52;9.13;;;;;;;;;;5049426;28;20080;-74
2022/05/05 00:39:03;;;;;;;18.10;9.85;;;;;;;;;;5024003;28;20044;-74
2022/05/05 00:41:34;;;;;;;21.92;9.60;;;;;;;;;;5025947;28;20132;-74
2022/05/05 00:44:05;;;;;;;25.17;10.43;;;;;;;;;;5030874;28;20140;-73
2022/05/05 00:46:33;;;;;;;24.77;9.73;;;;;;;;;;5030945;28;20135;-74
2022/05/05 00:49:01;;;;;;;18.48;10.07;;;;;;;;;;5054391;28;20135;-74
2022/05/05 00:51:28;;;;;;;19.85;10.70;;;;;;;;;;5014884;28;20128;-73
2022/05/05 00:53:56;;;;;;;20.40;9.85;;;;;;;;;;5033216;28;20148;-74
2022/05/05 00:56:24;;;;;;;24.35;9.77;;;;;;;;;;5033357;28;20132;-74
2022/05/05 00:58:53;;;;;;;23.55;10.52;;;;;;;;;;5043651;28;20127;-74
2022/05/05 01:01:21;;;;;;;21.60;9.40;;;;;;;;;;5035005;28;20479;-74
2022/05/05 01:03:49;;;;;;;16.83;8.95;;;;;;;;;;5041192;28;20076;-79
2022/05/05 01:06:16;;;;;;;19.40;9.65;;;;;;;;;;5050521;28;20041;-78
2022/05/05 01:08:44;;;;;;;18.40;9.02;;;;;;;;;;5048809;28;20674;-78
2022/05/05 01:11:11;;;;;;;22.95;9.88;;;;;;;;;;5020502;28;20459;-78
2022/05/05 01:13:39;;;;;;;20.20;9.95;;;;;;;;;;5040004;28;20652;-78
2022/05/05 01:16:07;;;;;;;20.38;10.25;;;;;;;;;;5028869;28;20088;-78
2022/05/05 01:18:35;;;;;;;18.48;9.63;;;;;;;;;;5048964;28;20702;-78
2022/05/05 01:21:03;;;;;;;21.25;10.32;;;;;;;;;;5026626;28;20080;-77
2022/05/05 01:23:30;;;;;;;23.20;9.75;;;;;;;;;;5049689;28;20355;-77
2022/05/05 01:28:45;;;;;;;24.55;9.68;;;;;;;;;;5040392;28;20139;-78
2022/05/05 01:31:13;;;;;;;19.02;11.73;;;;;;;;;;5045933;28;20744;-78
2022/05/05 01:33:40;;;;;;;30.88;11.90;;;;;;;;;;5034517;28;20455;-78
2022/05/05 01:36:08;;;;;;;19.73;9.70;;;;;;;;;;5048345;28;20119;-78
2022/05/05 01:38:39;;;;;;;19.75;10.20;;;;;;;;;;5025204;28;20081;-79
2022/05/05 01:41:07;;;;;;;21.65;10.40;;;;;;;;;;5024304;28;20087;-79
2022/05/05 01:43:34;;;;;;;26.27;10.25;;;;;;;;;;5053405;28;20135;-78
2022/05/05 01:46:02;;;;;;;16.63;9.90;;;;;;;;;;5047437;28;20152;-79
2022/05/05 01:48:29;;;;;;;23.05;11.45;;;;;;;;;;5023332;28;20124;-78
2022/05/05 01:50:57;;;;;;;23.00;11.10;;;;;;;;;;5049535;28;20043;-79
2022/05/05 01:53:24;;;;;;;24.38;9.85;;;;;;;;;;5055858;28;20076;-79
2022/05/05 01:55:51;;;;;;;19.73;9.82;;;;;;;;;;5054680;28;20127;-78
2022/05/05 01:58:19;;;;;;;28.42;10.23;;;;;;;;;;5036201;28;20076;-78
2022/05/05 02:00:46;;;;;;;19.13;9.90;;;;;;;;;;5032029;28;20428;-79
2022/05/05 02:03:13;;;;;;;19.45;8.45;;;;;;;;;;5028382;28;20045;-79
2022/05/05 02:05:41;;;;;;;17.45;9.50;;;;;;;;;;5060926;28;20422;-79
2022/05/05 02:08:09;;;;;;;19.67;10.73;;;;;;;;;;5058500;28;20080;-79
2022/05/05 02:10:36;;;;;;;23.38;10.52;;;;;;;;;;5044953;28;20124;-80
2022/05/05 02:13:05;;;;;;;21.85;10.38;;;;;;;;;;5039528;28;20055;-80
2022/05/05 02:15:34;;;;;;;23.33;11.73;;;;;;;;;;5058055;28;20094;-79
2022/05/05 02:18:09;;;;;;;19.83;11.13;;;;;;;;;;5033456;28;20045;-81
2022/05/05 02:20:37;;;;;;;23.35;12.23;;;;;;;;;;5054369;28;20114;-79
2022/05/05 02:23:05;;;;;;;30.08;12.48;;;;;;;;;;5050724;28;20057;-78
2022/05/05 02:25:32;;;;;;;23.10;12.18;;;;;;;;;;5034532;28;20067;-78
2022/05/05 02:27:59;;;;;;;23.90;11.15;;;;;;;;;;5022059;28;20077;-79
2022/05/05 02:30:28;;;;;;;30.70;11.73;;;;;;;;;;5053441;28;20049;-79
2022/05/05 02:32:56;;;;;;;20.58;10.77;;;;;;;;;;5031085;28;20118;-79
2022/05/05 02:35:23;;;;;;;20.70;11.00;;;;;;;;;;5039826;28;20084;-79
2022/05/05 02:40:37;;;;;;;18.83;9.70;;;;;;;;;;5049718;28;20045;-78
2022/05/05 02:43:04;;;;;;;25.30;10.95;;;;;;;;;;5038763;28;20143;-79
2022/05/05 02:45:31;;;;;;;23.35;11.15;;;;;;;;;;5050201;28;20120;-78
2022/05/05 02:47:59;;;;;;;18.08;10.48;;;;;;;;;;5043796;28;20084;-78
2022/05/05 02:50:27;;;;;;;19.70;10.57;;;;;;;;;;5049036;28;20140;-79
2022/05/05 02:52:54;;;;;;;24.02;11.40;;;;;;;;;;5049744;28;20120;-79
2022/05/05 02:55:22;;;;;;;20.02;9.60;;;;;;;;;;5044128;28;20130;-78
2022/05/05 02:57:50;;;;;;;18.73;10.20;;;;;;;;;;5036007;28;20783;-78
2022/05/05 03:00:17;;;;;;;28.35;11.48;;;;;;;;;;5051624;28;20128;-78
2022/05/05 03:02:45;;;;;;;24.92;10.15;;;;;;;;;;5042695;28;20159;-78
2022/05/05 03:05:16;;;;;;;18.80;10.93;;;;;;;;;;5035571;28;20083;-78
2022/05/05 03:07:44;;;;;;;30.52;11.85;;;;;;;;;;5040703;28;20104;-78
2022/05/05 03:10:13;;;;;;;28.35;11.98;;;;;;;;;;5028416;28;20128;-78
2022/05/05 03:12:40;;;;;;;20.83;11.10;;;;;;;;;;5039639;28;20066;-78
2022/05/05 03:15:08;;;;;;;34.45;13.80;;;;;;;;;;5032925;28;20088;-79
2022/05/05 03:17:35;;;;;;;28.85;13.50;;;;;;;;;;5057493;28;20450;-79
2022/05/05 03:20:04;;;;;;;27.38;12.65;;;;;;;;;;5044590;28;20056;-79
2022/05/05 03:22:31;;;;;;;20.42;10.82;;;;;;;;;;5036642;28;20077;-79
2022/05/05 03:24:58;;;;;;;25.25;11.38;;;;;;;;;;5033794;28;20072;-79
2022/05/05 03:27:26;;;;;;;38.25;12.40;;;;;;;;;;5052171;28;20041;-79
2022/05/05 03:29:53;;;;;;;17.67;10.35;;;;;;;;;;5033638;28;20136;-78
2022/05/05 03:32:21;;;;;;;23.75;11.88;;;;;;;;;;5058142;28;20136;-78
2022/05/05 03:34:48;;;;;;;23.95;12.32;;;;;;;;;;5036598;28;20075;-78
2022/05/05 03:37:15;;;;;;;34.45;13.20;;;;;;;;;;5048952;28;20187;-79
2022/05/05 03:39:42;;;;;;;23.60;12.63;;;;;;;;;;5031778;28;20141;-79
2022/05/05 03:42:10;;;;;;;26.05;12.90;;;;;;;;;;5050195;28;20500;-79
2022/05/05 03:44:37;;;;;;;28.83;13.73;;;;;;;;;;5048737;28;20773;-79
2022/05/05 03:47:05;;;;;;;27.95;11.88;;;;;;;;;;5035728;28;20139;-79
2022/05/05 03:49:32;;;;;;;21.67;12.65;;;;;;;;;;5053152;28;20117;-79
2022/05/05 03:51:59;;;;;;;25.25;13.10;;;;;;;;;;5052225;28;20045;-80
2022/05/05 03:54:26;;;;;;;26.92;12.35;;;;;;;;;;5033460;28;20068;-79
2022/05/05 03:56:53;;;;;;;18.02;11.57;;;;;;;;;;5053136;28;20457;-79
2022/05/05 03:59:22;;;;;;;27.58;12.07;;;;;;;;;;5050151;28;20136;-79
2022/05/05 04:01:49;;;;;;;36.30;13.60;;;;;;;;;;5032521;28;20486;-79
2022/05/05 04:04:20;;;;;;;30.77;15.60;;;;;;;;;;5028192;28;20049;-79
2022/05/05 04:06:47;;;;;;;36.28;16.45;;;;;;;;;;5054481;28;20080;-79
2022/05/05 04:09:15;;;;;;;30.65;17.08;;;;;;;;;;5034119;28;20132;-79
2022/05/05 04:11:42;;;;;;;30.30;16.83;;;;;;;;;;5040527;28;20103;-79
2022/05/05 04:14:09;;;;;;;38.25;19.35;;;;;;;;;;5055224;28;20076;-78
2022/05/05 04:16:37;;;;;;;35.17;17.30;;;;;;;;;;5049267;28;20140;-74
2022/05/05 04:19:04;;;;;;;40.28;16.50;;;;;;;;;;5029134;28;20048;-74
2022/05/05 04:21:32;;;;;;;38.85;16.83;;;;;;;;;;5026273;28;20771;-74
2022/05/05 04:23:59;;;;;;;34.15;17.17;;;;;;;;;;5047445;28;20135;-75
2022/05/05 04:26:28;;;;;;;46.15;18.08;;;;;;;;;;5040043;28;20045;-75
2022/05/05 04:28:56;;;;;;;37.72;17.08;;;;;;;;;;5043026;28;20080;-74
2022/05/05 04:31:26;;;;;;;34.38;16.92;;;;;;;;;;5018412;28;20742;-74
2022/05/05 04:33:53;;;;;;;36.67;17.25;;;;;;;;;;5057301;28;20052;-74
2022/05/05 04:36:21;;;;;;;42.95;18.38;;;;;;;;;;5019601;28;20132;-74
2022/05/05 04:38:48;;;;;;;41.45;19.13;;;;;;;;;;5023422;28;20053;-74
2022/05/05 04:41:15;;;;;;;60.53;18.75;;;;;;;;;;5031892;28;20466;-74
2022/05/05 04:43:42;;;;;;;55.80;18.65;;;;;;;;;;5054081;28;20581;-74
2022/05/05 04:46:09;;;;;;;42.70;20.20;;;;;;;;;;5046756;28;20159;-79
2022/05/05 04:48:37;;;;;;;42.45;18.40;;;;;;;;;;5034871;28;20103;-79
2022/05/05 04:51:04;;;;;;;30.83;17.67;;;;;;;;;;5032673;28;20137;-79
2022/05/05 04:53:31;;;;;;;36.95;19.23;;;;;;;;;;5050140;28;20541;-79
2022/05/05 04:55:58;;;;;;;32.53;17.42;;;;;;;;;;5055186;28;20132;-82
2022/05/05 04:58:26;;;;;;;44.75;19.00;;;;;;;;;;5050806;28;20045;-81
2022/05/05 05:00:53;;;;;;;34.20;17.17;;;;;;;;;;5028504;28;20050;-81
2022/05/05 05:03:32;;;;;;;43.50;18.35;;;;;;;;;;5052349;28;20068;-82
2022/05/05 05:06:01;;;;;;;29.33;16.80;;;;;;;;;;5031545;28;20049;-82
2022/05/05 05:08:29;;;;;;;36.15;18.58;;;;;;;;;;5055543;28;20040;-82
2022/05/05 05:10:56;;;;;;;27.45;16.83;;;;;;;;;;5056620;28;20087;-84
2022/05/05 05:13:23;;;;;;;36.30;16.25;;;;;;;;;;5029188;28;20202;-81
2022/05/05 05:15:50;;;;;;;34.58;16.45;;;;;;;;;;5033712;28;20076;-82
2022/05/05 05:18:18;;;;;;;39.50;16.70;;;;;;;;;;5052189;28;20439;-82
2022/05/05 05:20:45;;;;;;;43.28;16.73;;;;;;;;;;5052027;28;20410;-81
2022/05/05 05:23:12;;;;;;;30.92;15.88;;;;;;;;;;5033229;28;20049;-81
2022/05/05 05:25:40;;;;;;;28.38;15.10;;;;;;;;;;5027809;28;20081;-84
2022/05/05 05:28:07;;;;;;;32.05;15.55;;;;;;;;;;5037539;28;20083;-80
2022/05/05 05:30:39;;;;;;;40.22;16.17;;;;;;;;;;5055289;28;20091;-80
2022/05/05 05:33:06;;;;;;;32.72;15.68;;;;;;;;;;5051114;28;20671;-80
2022/05/05 05:35:33;;;;;;;35.42;14.80;;;;;;;;;;5049968;28;20087;-80
2022/05/05 05:38:01;;;;;;;32.88;14.82;;;;;;;;;;5032597;28;20133;-81
2022/05/05 05:40:28;;;;;;;37.03;14.95;;;;;;;;;;5027865;28;20076;-81
2022/05/05 05:42:55;;;;;;;38.80;13.80;;;;;;;;;;5032588;28;20057;-81
2022/05/05 05:45:23;;;;;;;28.42;13.40;;;;;;;;;;5048364;28;20061;-81
2022/05/05 05:47:50;;;;;;;27.92;12.95;;;;;;;;;;5034178;28;20662;-80
2022/05/05 05:50:17;;;;;;;38.30;14.35;;;;;;;;;;5050970;28;20049;-82
2022/05/05 05:52:44;;;;;;;32.50;13.63;;;;;;;;;;5035497;28;20910;-81
2022/05/05 05:55:11;;;;;;;31.13;14.15;;;;;;;;;;5014437;28;20069;-81
2022/05/05 05:57:39;;;;;;;30.67;13.30;;;;;;;;;;5041573;28;20077;-81
2022/05/05 06:00:07;;;;;;;31.95;13.90;;;;;;;;;;5051689;28;20067;-81
2022/05/05 06:05:21;;;;;;;24.73;12.45;;;;;;;;;;5051976;28;20053;-81
2022/05/05 06:07:48;;;;;;;27.02;12.25;;;;;;;;;;5051310;28;20046;-81
2022/05/05 06:10:18;;;;;;;25.60;10.85;;;;;;;;;;5033218;28;20063;-81
2022/05/05 06:12:45;;;;;;;23.13;10.10;;;;;;;;;;5014057;28;20079;-81
2022/05/05 06:15:13;;;;;;;19.08;10.13;;;;;;;;;;5031687;28;20111;-81
2022/05/05 06:17:40;;;;;;;34.35;10.10;;;;;;;;;;5014101;28;20088;-81
2022/05/05 06:20:08;;;;;;;19.40;8.88;;;;;;;;;;5014486;28;20453;-81
2022/05/05 06:22:37;;;;;;;22.58;9.50;;;;;;;;;;5033556;28;20080;-81
2022/05/05 06:25:05;;;;;;;21.30;8.63;;;;;;;;;;5051303;28;20073;-81
2022/05/05 06:27:32;;;;;;;16.67;8.75;;;;;;;;;;5053163;28;20080;-81
2022/05/05 06:30:03;;;;;;;12.93;7.43;;;;;;;;;;5067632;28;20079;-81
2022/05/05 06:32:30;;;;;;;18.33;8.02;;;;;;;;;;5031925;28;20081;-80
2022/05/05 06:34:58;;;;;;;14.65;7.60;;;;;;;;;;5030161;28;20049;-80
2022/05/05 06:37:25;;;;;;;18.98;7.10;;;;;;;;;;5057863;28;20080;-81
2022/05/05 06:39:52;;;;;;;22.60;6.93;;;;;;;;;;5051620;28;20075;-80
2022/05/05 06:42:19;;;;;;;15.23;6.47;;;;;;;;;;5037177;28;20132;-80
2022/05/05 06:44:47;;;;;;;12.98;6.47;;;;;;;;;;5012139;28;20080;-79
2022/05/05 06:47:14;;;;;;;18.38;6.75;;;;;;;;;;5012430;28;20073;-81
2022/05/05 06:49:41;;;;;;;16.67;6.78;;;;;;;;;;5038528;28;20077;-80
2022/05/05 06:52:08;;;;;;;46.20;11.35;;;;;;;;;;5027057;28;20131;-79
2022/05/05 06:54:56;;;;;;;31.83;7.57;;;;;;;;;;5043983;28;20053;-79
2022/05/05 06:57:23;;;;;;;15.55;5.45;;;;;;;;;;5020821;28;20041;-80
2022/05/05 06:59:51;;;;;;;14.27;5.32;;;;;;;;;;5023593;28;20114;-81
2022/05/05 07:02:18;;;;;;;16.27;5.05;;;;;;;;;;5044513;28;20084;-80
2022/05/05 07:07:32;;;;;;;17.50;5.28;;;;;;;;;;5036259;28;20155;-81
2022/05/05 07:12:45;;;;;;;33.42;5.05;;;;;;;;;;5048276;28;20612;-82
2022/05/05 07:15:12;;;;;;;10.18;3.85;;;;;;;;;;5046298;28;20861;-82
2022/05/05 07:17:39;;;;;;;21.95;3.97;;;;;;;;;;5049191;28;20068;-83
2022/05/05 07:20:07;;;;;;;12.50;3.88;;;;;;;;;;5031575;28;20047;-84
2022/05/05 07:22:35;;;;;;;10.55;3.55;;;;;;;;;;5031390;28;20719;-83
2022/05/05 07:25:03;;;;;;;14.10;2.95;;;;;;;;;;5027446;28;20081;-84
2022/05/05 07:27:30;;;;;;;12.57;4.13;;;;;;;;;;5048637;28;20053;-83
2022/05/05 07:29:57;;;;;;;28.63;4.10;;;;;;;;;;5033383;28;20088;-84
2022/05/05 07:32:25;;;;;;;53.08;5.45;;;;;;;;;;5047545;28;20727;-84
2022/05/05 07:34:57;;;;;;;6.13;2.92;;;;;;;;;;5030449;28;20375;-83
2022/05/05 07:37:24;;;;;;;9.48;3.40;;;;;;;;;;5030160;28;20102;-83
2022/05/05 07:39:51;;;;;;;7.15;2.58;;;;;;;;;;5030424;28;20099;-83
2022/05/05 07:42:18;;;;;;;17.63;3.15;;;;;;;;;;5030982;28;20148;-83
2022/05/05 07:44:46;;;;;;;16.60;3.67;;;;;;;;;;5012480;28;20054;-83
2022/05/05 07:47:13;;;;;;;8.98;3.00;;;;;;;;;;5031334;28;20085;-84
2022/05/05 07:49:40;;;;;;;14.55;3.22;;;;;;;;;;5036286;28;20119;-83
2022/05/05 07:52:07;;;;;;;14.65;3.45;;;;;;;;;;5032047;28;20088;-84
2022/05/05 07:54:34;;;;;;;16.73;3.50;;;;;;;;;;5050381;28;20136;-84
2022/05/05 07:57:02;;;;;;;11.43;3.28;;;;;;;;;;5031000;28;20596;-83
2022/05/05 07:59:30;;;;;;;25.52;3.75;;;;;;;;;;5032761;28;20786;-84
2022/05/05 08:01:57;;;;;;;7.90;3.20;;;;;;;;;;5053105;28;20506;-84
2022/05/05 08:04:24;;;;;;;9.68;3.20;;;;;;;;;;5053992;28;20037;-83
2022/05/05 08:06:52;;;;;;;18.05;3.10;;;;;;;;;;5056067;28;20472;-84
2022/05/05 08:09:19;;;;;;;9.57;2.80;;;;;;;;;;5054331;28;20136;-84
2022/05/05 08:12:00;;;;;;;13.07;3.53;;;;;;;;;;5071092;28;20554;-84
2022/05/05 08:14:28;;;;;;;7.93;2.70;;;;;;;;;;5074378;28;20083;-84
2022/05/05 08:16:55;;;;;;;9.30;2.55;;;;;;;;;;5064639;28;20083;-84
2022/05/05 08:19:22;;;;;;;29.15;3.38;;;;;;;;;;5016413;28;20516;-83
2022/05/05 08:30:44;;;;;;;24.70;3.60;;;;;;;;;;5053360;28;20049;-83
2022/05/05 08:33:12;;;;;;;15.57;3.22;;;;;;;;;;5053581;28;20136;-83
2022/05/05 08:35:41;;;;;;;8.40;2.90;;;;;;;;;;5071822;28;20830;-84
2022/05/05 08:38:08;;;;;;;12.00;3.15;;;;;;;;;;5055365;28;20052;-81
2022/05/05 08:40:36;;;;;;;9.82;2.72;;;;;;;;;;5054988;28;20543;-81
2022/05/05 08:43:04;;;;;;;12.38;3.22;;;;;;;;;;5055265;28;20102;-81
2022/05/05 08:45:33;;;;;;;16.08;3.35;;;;;;;;;;5058874;28;20053;-81
2022/05/05 08:48:00;;;;;;;10.02;2.92;;;;;;;;;;5052932;28;20143;-81
2022/05/05 08:50:28;;;;;;;11.05;2.97;;;;;;;;;;5054175;28;20092;-81
2022/05/05 08:52:56;;;;;;;8.93;2.72;;;;;;;;;;5055460;28;20056;-84
2022/05/05 08:55:24;;;;;;;10.10;2.97;;;;;;;;;;5041872;28;20049;-84
2022/05/05 08:57:51;;;;;;;9.32;3.20;;;;;;;;;;5042403;28;20071;-81
2022/05/05 09:00:19;;;;;;;7.65;2.72;;;;;;;;;;5072281;28;20135;-82
2022/05/05 09:02:46;;;;;;;26.83;3.30;;;;;;;;;;5046499;28;20131;-81
2022/05/05 09:05:14;;;;;;;4.80;2.45;;;;;;;;;;5052294;28;20106;-81
2022/05/05 09:07:48;;;;;;;12.20;2.88;;;;;;;;;;5073078;28;20052;-81
2022/05/05 09:10:20;;;;;;;7.97;2.75;;;;;;;;;;5055316;28;20147;-81
2022/05/05 09:12:57;;;;;;;7.35;2.72;;;;;;;;;;5070841;28;20948;-81
2022/05/05 09:15:35;;;;;;;21.33;3.53;;;;;;;;;;5051382;28;20057;-81
2022/05/05 09:18:16;;;;;;;6.85;2.47;;;;;;;;;;5035270;28;20083;-82
2022/05/05 09:20:44;;;;;;;9.63;2.67;;;;;;;;;;5056948;28;20080;-82
2022/05/05 09:23:36;;;;;;;8.77;2.67;;;;;;;;;;5053873;28;20147;-81
2022/05/05 09:26:04;;;;;;;8.55;2.50;;;;;;;;;;5041411;28;20060;-82
2022/05/05 09:28:32;;;;;;;8.38;2.58;;;;;;;;;;5050013;28;20075;-82
2022/05/05 09:31:07;;;;;;;8.70;2.17;;;;;;;;;;5048530;28;20132;-82
2022/05/05 09:33:34;;;;;;;7.85;2.10;;;;;;;;;;5048360;28;20561;-82
2022/05/05 09:36:12;;;;;;;7.90;2.45;;;;;;;;;;5042589;28;20087;-81
2022/05/05 09:38:48;;;;;;;9.00;3.33;;;;;;;;;;5072364;28;20127;-81
2022/05/05 09:41:15;;;;;;;7.30;2.05;;;;;;;;;;5071747;28;20052;-82
2022/05/05 09:43:42;;;;;;;7.75;2.20;;;;;;;;;;5054339;28;20087;-81
2022/05/05 09:46:27;;;;;;;21.55;3.33;;;;;;;;;;5053186;28;20110;-82
2022/05/05 09:49:08;;;;;;;8.00;1.90;;;;;;;;;;5034423;28;20053;-82
2022/05/05 09:51:40;;;;;;;7.50;2.35;;;;;;;;;;5051488;28;20061;-82
2022/05/05 09:59:48;;;;;;;12.93;2.10;;;;;;;;;;5071104;28;20131;-82
2022/05/05 10:04:00;;;;;;;11.48;2.40;;;;;;;;;;5053017;28;20135;-82
2022/05/05 10:05:09;;;;;;;7.43;1.95;;;;;;;;;;5055420;28;20505;-82
2022/05/05 10:07:39;;;;;;;12.65;2.35;;;;;;;;;;5052668;28;20529;-81
2022/05/05 10:10:08;;;;;;;8.10;2.05;;;;;;;;;;5034308;28;20087;-80
2022/05/05 10:12:37;;;;;;;6.40;2.20;;;;;;;;;;5069548;28;20080;-82
2022/05/05 10:15:04;;;;;;;10.82;2.15;;;;;;;;;;5068698;28;20049;-81
2022/05/05 10:17:35;;;;;;;7.95;2.30;;;;;;;;;;5068914;28;20532;-82
2022/05/05 10:20:06;;;;;;;4.80;1.63;;;;;;;;;;5033237;28;20053;-82
2022/05/05 10:22:37;;;;;;;10.38;2.20;;;;;;;;;;5066751;28;20574;-82
2022/05/05 10:25:17;;;;;;;6.90;1.92;;;;;;;;;;5032915;28;20111;-81
2022/05/05 10:27:44;;;;;;;8.68;2.10;;;;;;;;;;5027626;28;20084;-82
2022/05/05 10:30:16;;;;;;;11.10;2.17;;;;;;;;;;5044960;28;20076;-82
2022/05/05 10:32:43;;;;;;;7.00;2.40;;;;;;;;;;5024082;28;20080;-82
2022/05/05 10:35:14;;;;;;;6.85;2.33;;;;;;;;;;5041235;28;20080;-83
2022/05/05 10:37:42;;;;;;;17.40;2.58;;;;;;;;;;5049869;28;20073;-83
2022/05/05 10:40:10;;;;;;;5.05;2.00;;;;;;;;;;5029964;28;20131;-83
2022/05/05 10:42:41;;;;;;;6.13;2.03;;;;;;;;;;5031577;28;20081;-82
2022/05/05 10:45:16;;;;;;;9.10;1.90;;;;;;;;;;5021855;28;20079;-83
2022/05/05 10:50:33;;;;;;;7.40;1.95;;;;;;;;;;5031335;28;20461;-83
2022/05/05 10:53:01;;;;;;;5.90;2.10;;;;;;;;;;5013644;28;20053;-82
2022/05/05 10:55:40;;;;;;;7.65;1.90;;;;;;;;;;5041783;28;20670;-82
2022/05/05 10:58:46;;;;;;;5.40;1.92;;;;;;;;;;5050613;28;20798;-82
2022/05/05 11:01:13;;;;;;;9.73;1.90;;;;;;;;;;5023675;28;20103;-83
2022/05/05 11:04:00;;;;;;;10.00;2.35;;;;;;;;;;5017986;28;20075;-83
2022/05/05 11:06:29;;;;;;;9.65;2.10;;;;;;;;;;5032322;28;20152;-82
2022/05/05 11:08:57;;;;;;;14.23;2.92;;;;;;;;;;5029627;23;20077;-75
2022/05/05 11:11:42;;;;;;;6.90;2.15;;;;;;;;;;5020775;28;20046;-75
2022/05/05 11:21:32;;;;;;;8.30;2.08;;;;;;;;;;5027549;28;20485;-75
2022/05/05 11:22:48;;;;;;;11.57;3.00;;;;;;;;;;5025024;28;20168;-75
2022/05/05 11:25:17;;;;;;;31.10;3.25;;;;;;;;;;5025046;28;20081;-75
2022/05/05 11:27:45;;;;;;;5.38;2.22;;;;;;;;;;5035883;28;20084;-75
2022/05/05 11:30:14;;;;;;;10.27;2.47;;;;;;;;;;5007421;28;20051;-75
2022/05/05 11:32:44;;;;;;;26.05;3.35;;;;;;;;;;5023973;28;20129;-75
2022/05/05 11:35:31;;;;;;;15.15;3.08;;;;;;;;;;5026039;28;20072;-75
2022/05/05 11:37:59;;;;;;;15.93;2.25;;;;;;;;;;5031149;28;20162;-75
2022/05/05 11:40:36;;;;;;;7.43;2.30;;;;;;;;;;5035590;28;20045;-75
2022/05/05 11:45:55;;;;;;;11.05;2.30;;;;;;;;;;5032705;28;20045;-75
2022/05/05 11:48:22;;;;;;;7.10;2.28;;;;;;;;;;5030487;28;20493;-75
2022/05/05 11:51:06;;;;;;;6.47;1.87;;;;;;;;;;5028230;28;20046;-75
2022/05/05 11:53:35;;;;;;;8.40;2.35;;;;;;;;;;5035448;28;20110;-75
2022/05/05 11:56:03;;;;;;;15.15;2.80;;;;;;;;;;5029636;28;20757;-75
2022/05/05 12:01:39;;;;;;;7.45;2.25;;;;;;;;;;5028796;28;20615;-76
2022/05/05 12:04:08;;;;;;;9.38;2.42;;;;;;;;;;5028590;28;20049;-75
2022/05/05 12:06:37;;;;;;;10.20;2.53;;;;;;;;;;5021401;28;20443;-75
2022/05/05 12:09:06;;;;;;;4.85;2.10;;;;;;;;;;5033586;28;20107;-75
2022/05/05 12:11:35;;;;;;;9.38;2.42;;;;;;;;;;5017867;28;20454;-75
2022/05/05 12:14:06;;;;;;;7.82;2.00;;;;;;;;;;4993097;28;20122;-75
2022/05/05 12:16:35;;;;;;;12.43;2.30;;;;;;;;;;5008180;28;20058;-75
2022/05/05 12:19:12;;;;;;;9.70;2.17;;;;;;;;;;5008081;28;20076;-75
2022/05/05 12:21:59;;;;;;;6.63;2.10;;;;;;;;;;5009667;28;20065;-75
2022/05/05 12:24:28;;;;;;;20.50;3.30;;;;;;;;;;5013908;28;20085;-75
2022/05/05 12:27:08;;;;;;;10.05;2.45;;;;;;;;;;5007895;28;20118;-75
2022/05/05 12:29:38;;;;;;;9.18;2.63;;;;;;;;;;5008548;28;20053;-75
2022/05/05 12:32:09;;;;;;;44.13;4.45;;;;;;;;;;5008205;28;20069;-75
2022/05/05 12:34:37;;;;;;;6.35;2.33;;;;;;;;;;4990259;28;20050;-75
2022/05/05 12:37:08;;;;;;;6.95;2.40;;;;;;;;;;5007556;28;20085;-75
2022/05/05 12:39:48;;;;;;;9.20;2.58;;;;;;;;;;5000471;28;20486;-75
2022/05/05 12:42:16;;;;;;;10.35;2.83;;;;;;;;;;5007612;28;20081;-75
2022/05/05 12:44:44;;;;;;;12.90;2.30;;;;;;;;;;5007998;28;20077;-75
2022/05/05 12:47:11;;;;;;;23.67;3.13;;;;;;;;;;5007655;28;20116;-75
2022/05/05 12:49:40;;;;;;;7.85;2.47;;;;;;;;;;5004219;28;20056;-75
2022/05/05 12:59:36;;;;;;;16.00;2.95;;;;;;;;;;5002466;28;20081;-75
2022/05/05 13:00:30;;;;;;;9.20;2.05;;;;;;;;;;5007315;28;20050;-75
2022/05/05 13:03:18;;;;;;;19.65;3.13;;;;;;;;;;5006282;28;20046;-75
2022/05/05 13:05:47;;;;;;;11.90;2.88;;;;;;;;;;5010732;28;20042;-75
2022/05/05 13:08:35;;;;;;;7.57;3.10;;;;;;;;;;4989079;28;20104;-75
2022/05/05 13:11:02;;;;;;;7.55;2.67;;;;;;;;;;4992070;28;20095;-75
2022/05/05 13:13:30;;;;;;;8.95;2.03;;;;;;;;;;5005866;28;20136;-75
2022/05/05 13:15:57;;;;;;;9.07;2.50;;;;;;;;;;5014742;28;20078;-75
2022/05/05 13:18:25;;;;;;;23.85;3.10;;;;;;;;;;5006115;28;20077;-74
2022/05/05 13:20:52;;;;;;;14.27;2.70;;;;;;;;;;4986147;28;20126;-73
2022/05/05 13:23:19;;;;;;;7.50;2.78;;;;;;;;;;4999144;28;20058;-72
2022/05/05 13:25:46;;;;;;;7.40;2.30;;;;;;;;;;4996094;28;20132;-73
2022/05/05 13:28:13;;;;;;;7.57;2.45;;;;;;;;;;4986219;28;20049;-73
2022/05/05 13:30:41;;;;;;;8.00;1.83;;;;;;;;;;4999740;28;20716;-74
2022/05/05 13:33:11;;;;;;;13.18;2.35;;;;;;;;;;5001229;28;20077;-73
2022/05/05 13:35:39;;;;;;;12.45;2.78;;;;;;;;;;5000534;28;20045;-74
2022/05/05 13:38:06;;;;;;;7.90;2.38;;;;;;;;;;4973215;28;20074;-74
2022/05/05 13:40:33;;;;;;;10.20;2.67;;;;;;;;;;4992217;28;20060;-74
2022/05/05 13:43:00;;;;;;;11.00;3.03;;;;;;;;;;4993861;28;20165;-73
2022/05/05 13:45:28;;;;;;;8.80;2.83;;;;;;;;;;4993379;28;20811;-73
2022/05/05 13:47:55;;;;;;;31.45;5.78;;;;;;;;;;4995720;28;20148;-74
2022/05/05 13:50:22;;;;;;;22.05;4.55;;;;;;;;;;4994991;28;20135;-74
2022/05/05 13:52:49;;;;;;;10.70;2.47;;;;;;;;;;4993936;28;20073;-74
2022/05/05 13:55:17;;;;;;;7.03;2.70;;;;;;;;;;4977382;28;20148;-74
2022/05/05 13:57:44;;;;;;;9.70;2.70;;;;;;;;;;4997815;28;20208;-74
2022/05/05 14:00:13;;;;;;;16.50;2.95;;;;;;;;;;4978911;28;20058;-74
2022/05/05 14:02:42;;;;;;;7.05;1.85;;;;;;;;;;4993339;28;20057;-74
2022/05/05 14:05:09;;;;;;;12.82;2.88;;;;;;;;;;4994501;28;20566;-74
2022/05/05 14:13:08;;;;;;;9.60;2.85;;;;;;;;;;5025040;28;20152;-74
2022/05/05 14:15:37;;;;;;;12.85;3.05;;;;;;;;;;5002972;28;20140;-74
2022/05/05 14:18:05;;;;;;;7.47;2.60;;;;;;;;;;5005348;28;20045;-74
2022/05/05 14:20:36;;;;;;;5.85;2.40;;;;;;;;;;5017617;28;20418;-74
2022/05/05 14:23:04;;;;;;;10.52;2.90;;;;;;;;;;5019266;28;20068;-74
2022/05/05 14:25:31;;;;;;;10.93;3.03;;;;;;;;;;5021005;28;20122;-75
2022/05/05 14:27:58;;;;;;;8.82;2.63;;;;;;;;;;5020056;28;20124;-74
2022/05/05 14:30:26;;;;;;;10.20;2.70;;;;;;;;;;5019483;28;20111;-74
2022/05/05 14:32:53;;;;;;;10.73;2.70;;;;;;;;;;5004215;28;20045;-74
2022/05/05 14:35:21;;;;;;;8.80;2.60;;;;;;;;;;5020810;28;20104;-74
2022/05/05 14:37:49;;;;;;;8.50;2.85;;;;;;;;;;5016591;28;20137;-75
2022/05/05 14:40:16;;;;;;;9.50;3.33;;;;;;;;;;5019534;28;21453;-75
2022/05/05 14:42:43;;;;;;;17.58;2.70;;;;;;;;;;5019845;28;20081;-75
2022/05/05 14:45:13;;;;;;;9.52;2.38;;;;;;;;;;5020585;28;20080;-75
2022/05/05 14:47:40;;;;;;;10.82;2.55;;;;;;;;;;5017536;28;20058;-75
2022/05/05 14:50:07;;;;;;;8.95;2.47;;;;;;;;;;5016150;28;20049;-75
2022/05/05 14:52:34;;;;;;;6.20;2.47;;;;;;;;;;5020732;28;20124;-75
2022/05/05 14:55:02;;;;;;;7.20;1.88;;;;;;;;;;5019862;28;20053;-76
2022/05/05 14:57:29;;;;;;;18.20;2.83;;;;;;;;;;5021746;28;20049;-76
2022/05/05 14:59:57;;;;;;;11.13;2.20;;;;;;;;;;5002021;28;20136;-75
2022/05/05 15:02:25;;;;;;;9.32;2.33;;;;;;;;;;5016171;28;20465;-75
2022/05/05 15:04:52;;;;;;;9.82;2.33;;;;;;;;;;5015658;28;20120;-75
2022/05/05 15:07:20;;;;;;;7.43;1.98;;;;;;;;;;5019015;28;20132;-76
2022/05/05 15:09:47;;;;;;;13.15;2.40;;;;;;;;;;5016368;28;20068;-75
2022/05/05 15:12:14;;;;;;;8.50;2.13;;;;;;;;;;5022530;28;20180;-76
2022/05/05 15:14:42;;;;;;;8.02;1.95;;;;;;;;;;5015419;28;20085;-75
2022/05/05 15:17:09;;;;;;;8.93;1.98;;;;;;;;;;5019591;28;20115;-76
2022/05/05 15:19:36;;;;;;;8.73;1.70;;;;;;;;;;5020280;28;20601;-75
2022/05/05 15:22:04;;;;;;;11.30;1.75;;;;;;;;;;5025575;28;20115;-74
2022/05/05 15:24:31;;;;;;;5.55;1.92;;;;;;;;;;5021690;28;20148;-74
2022/05/05 15:26:58;;;;;;;12.32;3.13;;;;;;;;;;5027790;28;20156;-74
2022/05/05 15:29:25;;;;;;;8.82;1.90;;;;;;;;;;5018580;28;20136;-73
2022/05/05 15:31:53;;;;;;;6.25;1.50;;;;;;;;;;5022587;28;20157;-75
2022/05/05 15:34:20;;;;;;;6.00;2.08;;;;;;;;;;5015663;28;20061;-75
2022/05/05 15:36:48;;;;;;;5.90;1.50;;;;;;;;;;5027357;28;20132;-74